< < Back
Terminal Aerodrome Forecast


Current Version              Previous Versions:   1  2  3  4  5  6  7  8  9  

Terminal Aerodrome Forecast

185
FTUS42 KFFC 251737
TAFCSG
TAF
KCSG 251737Z 2518/2618 01006KT P6SM SCT070 BKN150
     FM260000 34004KT 6SM -RA BR OVC050
     FM260500 35007KT 6SM -RA BR SCT012 OVC025
     FM261000 32006KT P6SM BKN025
     FM261200 31006KT P6SM BKN035
     FM261400 31006KT P6SM SCT100=



Latest METAR

179
SAUS70 KWBC 252100 RRA
MTRCSG
METAR KCSG 252051Z 00000KT 10SM CLR 12/02 A3004 RMK AO2 SLP169 60000
T01220017 55009


USA.gov is the U.S. government's official web portal to all federal, state and local government web resources and services.